sensor_id;sensor_type;location;lat;lon;timestamp;pressure;altitude;pressure_sealevel;temperature;humidity
60715;BME280;46564;53.096;8.246;2023-05-07T00:00:30;74300.13;;;0.00;0.00
60715;BME280;46564;53.096;8.246;2023-05-07T00:05:32;74304.69;;;0.00;0.00
60715;BME280;46564;53.096;8.246;2023-05-07T00:10:34;74309.28;;;0.00;0.00
60715;BME280;46564;53.096;8.246;2023-05-07T00:15:35;74310.78;;;0.00;0.00
60715;BME280;46564;53.096;8.246;2023-05-07T00:20:37;74312.31;;;0.00;0.00
60715;BME280;46564;53.096;8.246;2023-05-07T00:25:38;74319.94;;;0.00;0.00
60715;BME280;46564;53.096;8.246;2023-05-07T00:30:40;74306.22;;;0.00;0.00
60715;BME280;46564;53.096;8.246;2023-05-07T00:35:43;74316.91;;;0.00;0.00
60715;BME280;46564;53.096;8.246;2023-05-07T00:40:44;74330.63;;;0.00;0.00
60715;BME280;46564;53.096;8.246;2023-05-07T00:45:46;74338.25;;;0.00;0.00
60715;BME280;46564;53.096;8.246;2023-05-07T00:50:48;74338.25;;;0.00;0.00
60715;BME280;46564;53.096;8.246;2023-05-07T00:55:50;74338.25;;;0.00;0.00
60715;BME280;46564;53.096;8.246;2023-05-07T01:00:51;74329.09;;;0.00;0.00
60715;BME280;46564;53.096;8.246;2023-05-07T01:05:54;74347.41;;;0.00;0.00
60715;BME280;46564;53.096;8.246;2023-05-07T01:10:57;74344.38;;;0.00;0.00
60715;BME280;46564;53.096;8.246;2023-05-07T01:16:00;74368.78;;;0.00;0.00
60715;BME280;46564;53.096;8.246;2023-05-07T01:21:08;74374.88;;;0.00;0.00
60715;BME280;46564;53.096;8.246;2023-05-07T01:26:12;74370.31;;;0.00;0.00
60715;BME280;46564;53.096;8.246;2023-05-07T01:31:16;74365.72;;;0.00;0.00
60715;BME280;46564;53.096;8.246;2023-05-07T01:36:19;74362.69;;;0.00;0.00
60715;BME280;46564;53.096;8.246;2023-05-07T01:41:22;74356.56;;;0.00;0.00
60715;BME280;46564;53.096;8.246;2023-05-07T01:46:24;74356.56;;;0.00;0.00
60715;BME280;46564;53.096;8.246;2023-05-07T01:51:27;74368.78;;;0.00;0.00
60715;BME280;46564;53.096;8.246;2023-05-07T01:56:30;74388.63;;;0.00;0.00
60715;BME280;46564;53.096;8.246;2023-05-07T02:01:31;74394.72;;;0.00;0.00
60715;BME280;46564;53.096;8.246;2023-05-07T02:06:33;74405.41;;;0.00;0.00
60715;BME280;46564;53.096;8.246;2023-05-07T02:11:38;74411.50;;;0.00;0.00
60715;BME280;46564;53.096;8.246;2023-05-07T02:16:40;74414.56;;;0.00;0.00
60715;BME280;46564;53.096;8.246;2023-05-07T02:21:44;74435.91;;;0.00;0.00
60715;BME280;46564;53.096;8.246;2023-05-07T02:26:46;74446.59;;;0.00;0.00
60715;BME280;46564;53.096;8.246;2023-05-07T02:31:47;74448.13;;;0.00;0.00
60715;BME280;46564;53.096;8.246;2023-05-07T02:36:54;74455.75;;;0.00;0.00
60715;BME280;46564;53.096;8.246;2023-05-07T02:41:59;74467.97;;;0.00;0.00
60715;BME280;46564;53.096;8.246;2023-05-07T02:47:01;74472.53;;;0.00;0.00
60715;BME280;46564;53.096;8.246;2023-05-07T02:52:03;74475.59;;;0.00;0.00
60715;BME280;46564;53.096;8.246;2023-05-07T02:57:05;74481.69;;;0.00;0.00
60715;BME280;46564;53.096;8.246;2023-05-07T03:02:06;74478.66;;;0.00;0.00
60715;BME280;46564;53.096;8.246;2023-05-07T03:07:08;74477.13;;;0.00;0.00
60715;BME280;46564;53.096;8.246;2023-05-07T03:12:09;74477.13;;;0.00;0.00
60715;BME280;46564;53.096;8.246;2023-05-07T03:17:11;74475.59;;;0.00;0.00
60715;BME280;46564;53.096;8.246;2023-05-07T03:22:13;74467.97;;;0.00;0.00
60715;BME280;46564;53.096;8.246;2023-05-07T03:27:15;74464.91;;;0.00;0.00
60715;BME280;46564;53.096;8.246;2023-05-07T03:32:17;74469.50;;;0.00;0.00
60715;BME280;46564;53.096;8.246;2023-05-07T03:37:19;74467.97;;;0.00;0.00
60715;BME280;46564;53.096;8.246;2023-05-07T03:42:21;74472.53;;;0.00;0.00
60715;BME280;46564;53.096;8.246;2023-05-07T03:47:25;74471.00;;;0.00;0.00
60715;BME280;46564;53.096;8.246;2023-05-07T03:52:27;74483.22;;;0.00;0.00
60715;BME280;46564;53.096;8.246;2023-05-07T03:57:31;74477.13;;;0.00;0.00
60715;BME280;46564;53.096;8.246;2023-05-07T04:02:33;74475.59;;;0.00;0.00
60715;BME280;46564;53.096;8.246;2023-05-07T04:07:37;74477.13;;;0.00;0.00
60715;BME280;46564;53.096;8.246;2023-05-07T04:12:38;74472.53;;;0.00;0.00
60715;BME280;46564;53.096;8.246;2023-05-07T04:17:42;74484.75;;;0.00;0.00
60715;BME280;46564;53.096;8.246;2023-05-07T04:22:44;74487.81;;;0.00;0.00
60715;BME280;46564;53.096;8.246;2023-05-07T04:27:46;74481.69;;;0.00;0.00
60715;BME280;46564;53.096;8.246;2023-05-07T04:32:50;74478.66;;;0.00;0.00
60715;BME280;46564;53.096;8.246;2023-05-07T04:37:52;74477.13;;;0.00;0.00
60715;BME280;46564;53.096;8.246;2023-05-07T04:42:53;74467.97;;;0.00;0.00
60715;BME280;46564;53.096;8.246;2023-05-07T04:47:56;74475.59;;;0.00;0.00
60715;BME280;46564;53.096;8.246;2023-05-07T04:52:57;74478.66;;;0.00;0.00
60715;BME280;46564;53.096;8.246;2023-05-07T04:57:59;74483.22;;;0.00;0.00
60715;BME280;46564;53.096;8.246;2023-05-07T05:03:06;74474.06;;;0.00;0.00
60715;BME280;46564;53.096;8.246;2023-05-07T05:08:08;74478.66;;;0.00;0.00
60715;BME280;46564;53.096;8.246;2023-05-07T05:13:13;74481.69;;;0.00;0.00
60715;BME280;46564;53.096;8.246;2023-05-07T05:18:16;74481.69;;;0.00;0.00
60715;BME280;46564;53.096;8.246;2023-05-07T05:23:17;74478.66;;;0.00;0.00
60715;BME280;46564;53.096;8.246;2023-05-07T05:28:19;74475.59;;;0.00;0.00
60715;BME280;46564;53.096;8.246;2023-05-07T05:33:20;74478.66;;;0.00;0.00
60715;BME280;46564;53.096;8.246;2023-05-07T05:57:10;74486.28;;;0.00;0.00
60715;BME280;46564;53.096;8.246;2023-05-07T06:02:12;74481.69;;;0.00;0.00
60715;BME280;46564;53.096;8.246;2023-05-07T06:07:15;74471.00;;;0.00;0.00
60715;BME280;46564;53.096;8.246;2023-05-07T06:12:16;74467.97;;;0.00;0.00
60715;BME280;46564;53.096;8.246;2023-05-07T06:17:18;74469.50;;;0.00;0.00
60715;BME280;46564;53.096;8.246;2023-05-07T06:22:24;74466.44;;;0.00;0.00
60715;BME280;46564;53.096;8.246;2023-05-07T06:27:25;74463.38;;;0.00;0.00
60715;BME280;46564;53.096;8.246;2023-05-07T06:32:27;74469.50;;;0.00;0.00
60715;BME280;46564;53.096;8.246;2023-05-07T06:37:29;74460.34;;;0.00;0.00
60715;BME280;46564;53.096;8.246;2023-05-07T06:42:37;74455.75;;;0.00;0.00
60715;BME280;46564;53.096;8.246;2023-05-07T06:48:02;74438.97;;;0.00;0.00
60715;BME280;46564;53.096;8.246;2023-05-07T06:53:08;74442.03;;;0.00;0.00
60715;BME280;46564;53.096;8.246;2023-05-07T06:58:09;74445.06;;;0.00;0.00
60715;BME280;46564;53.096;8.246;2023-05-07T07:03:12;74454.22;;;0.00;0.00
60715;BME280;46564;53.096;8.246;2023-05-07T07:08:14;74457.28;;;0.00;0.00
60715;BME280;46564;53.096;8.246;2023-05-07T07:13:19;74457.28;;;0.00;0.00
60715;BME280;46564;53.096;8.246;2023-05-07T07:18:21;74463.38;;;0.00;0.00
60715;BME280;46564;53.096;8.246;2023-05-07T07:23:24;74454.22;;;0.00;0.00
60715;BME280;46564;53.096;8.246;2023-05-07T07:28:26;74475.59;;;0.00;0.00
60715;BME280;46564;53.096;8.246;2023-05-07T07:33:28;74451.19;;;0.00;0.00
60715;BME280;46564;53.096;8.246;2023-05-07T07:38:30;74448.13;;;0.00;0.00
60715;BME280;46564;53.096;8.246;2023-05-07T07:43:32;74437.44;;;0.00;0.00
60715;BME280;46564;53.096;8.246;2023-05-07T07:48:34;74435.91;;;0.00;0.00
60715;BME280;46564;53.096;8.246;2023-05-07T07:53:36;74426.75;;;0.00;0.00
60715;BME280;46564;53.096;8.246;2023-05-07T07:58:37;74425.25;;;0.00;0.00
60715;BME280;46564;53.096;8.246;2023-05-07T08:03:40;74435.91;;;0.00;0.00
60715;BME280;46564;53.096;8.246;2023-05-07T08:08:42;74428.28;;;0.00;0.00
60715;BME280;46564;53.096;8.246;2023-05-07T08:13:45;74429.81;;;0.00;0.00
60715;BME280;46564;53.096;8.246;2023-05-07T08:18:47;74432.88;;;0.00;0.00
60715;BME280;46564;53.096;8.246;2023-05-07T08:23:48;74429.81;;;0.00;0.00
60715;BME280;46564;53.096;8.246;2023-05-07T08:28:51;74405.41;;;0.00;0.00
60715;BME280;46564;53.096;8.246;2023-05-07T08:33:52;74390.16;;;0.00;0.00
60715;BME280;46564;53.096;8.246;2023-05-07T08:38:54;74394.72;;;0.00;0.00
60715;BME280;46564;53.096;8.246;2023-05-07T08:43:58;74394.72;;;0.00;0.00
60715;BME280;46564;53.096;8.246;2023-05-07T08:49:00;74387.09;;;0.00;0.00
60715;BME280;46564;53.096;8.246;2023-05-07T08:54:02;74365.72;;;0.00;0.00
60715;BME280;46564;53.096;8.246;2023-05-07T08:59:07;74347.41;;;0.00;0.00
60715;BME280;46564;53.096;8.246;2023-05-07T09:04:09;74329.09;;;0.00;0.00
60715;BME280;46564;53.096;8.246;2023-05-07T09:09:14;74310.78;;;0.00;0.00
60715;BME280;46564;53.096;8.246;2023-05-07T09:14:21;74307.75;;;0.00;0.00
60715;BME280;46564;53.096;8.246;2023-05-07T09:19:24;74286.38;;;0.00;0.00
60715;BME280;46564;53.096;8.246;2023-05-07T09:24:28;74274.19;;;0.00;0.00
60715;BME280;46564;53.096;8.246;2023-05-07T09:29:37;74252.81;;;0.00;0.00
60715;BME280;46564;53.096;8.246;2023-05-07T09:34:41;74232.97;;;0.00;0.00
60715;BME280;46564;53.096;8.246;2023-05-07T09:39:45;74223.81;;;0.00;0.00
60715;BME280;46564;53.096;8.246;2023-05-07T09:44:50;74191.78;;;0.00;0.00
60715;BME280;46564;53.096;8.246;2023-05-07T09:49:56;74175.00;;;0.00;0.00
60715;BME280;46564;53.096;8.246;2023-05-07T09:54:59;74164.31;;;0.00;0.00
60715;BME280;46564;53.096;8.246;2023-05-07T10:00:04;74203.97;;;0.00;0.00
60715;BME280;46564;53.096;8.246;2023-05-07T10:05:23;74181.09;;;0.00;0.00
60715;BME280;46564;53.096;8.246;2023-05-07T10:10:32;74158.22;;;0.00;0.00
60715;BME280;46564;53.096;8.246;2023-05-07T10:15:34;74146.00;;;0.00;0.00
60715;BME280;46564;53.096;8.246;2023-05-07T10:20:37;74139.91;;;0.00;0.00
60715;BME280;46564;53.096;8.246;2023-05-07T10:25:43;74124.63;;;0.00;0.00
60715;BME280;46564;53.096;8.246;2023-05-07T10:31:18;74123.13;;;0.00;0.00
60715;BME280;46564;53.096;8.246;2023-05-07T10:36:25;74069.72;;;0.00;0.00
60715;BME280;46564;53.096;8.246;2023-05-07T10:41:28;74034.63;;;0.00;0.00
60715;BME280;46564;53.096;8.246;2023-05-07T10:46:30;74014.78;;;0.00;0.00
60715;BME280;46564;53.096;8.246;2023-05-07T10:51:41;74017.81;;;0.00;0.00
60715;BME280;46564;53.096;8.246;2023-05-07T10:56:55;73985.78;;;0.00;0.00
60715;BME280;46564;53.096;8.246;2023-05-07T11:02:02;73894.22;;;0.00;0.00
60715;BME280;46564;53.096;8.246;2023-05-07T11:07:27;73807.25;;;0.00;0.00
60715;BME280;46564;53.096;8.246;2023-05-07T11:17:59;73857.59;;;0.00;0.00
60715;BME280;46564;53.096;8.246;2023-05-07T11:23:06;73897.28;;;0.00;0.00
60715;BME280;46564;53.096;8.246;2023-05-07T11:28:13;73950.69;;;0.00;0.00
60715;BME280;46564;53.096;8.246;2023-05-07T11:33:22;73946.09;;;0.00;0.00
60715;BME280;46564;53.096;8.246;2023-05-07T11:38:26;73941.53;;;0.00;0.00
60715;BME280;46564;53.096;8.246;2023-05-07T11:43:29;73926.28;;;0.00;0.00
60715;BME280;46564;53.096;8.246;2023-05-07T11:48:30;73912.53;;;0.00;0.00
60715;BME280;46564;53.096;8.246;2023-05-07T11:53:37;73903.38;;;0.00;0.00
60715;BME280;46564;53.096;8.246;2023-05-07T11:58:40;73901.84;;;0.00;0.00
60715;BME280;46564;53.096;8.246;2023-05-07T12:03:43;73880.50;;;0.00;0.00
60715;BME280;46564;53.096;8.246;2023-05-07T12:08:47;73891.19;;;0.00;0.00
60715;BME280;46564;53.096;8.246;2023-05-07T12:13:50;73911.00;;;0.00;0.00
60715;BME280;46564;53.096;8.246;2023-05-07T12:18:52;73924.75;;;0.00;0.00
60715;BME280;46564;53.096;8.246;2023-05-07T12:23:56;73917.13;;;0.00;0.00
60715;BME280;46564;53.096;8.246;2023-05-07T12:28:58;73932.38;;;0.00;0.00
60715;BME280;46564;53.096;8.246;2023-05-07T12:33:59;73970.53;;;0.00;0.00
60715;BME280;46564;53.096;8.246;2023-05-07T12:39:01;73998.00;;;0.00;0.00
60715;BME280;46564;53.096;8.246;2023-05-07T12:44:04;73984.25;;;0.00;0.00
60715;BME280;46564;53.096;8.246;2023-05-07T12:49:06;73950.69;;;0.00;0.00
60715;BME280;46564;53.096;8.246;2023-05-07T12:54:07;73953.75;;;0.00;0.00
60715;BME280;46564;53.096;8.246;2023-05-07T12:59:09;73901.84;;;0.00;0.00
60715;BME280;46564;53.096;8.246;2023-05-07T13:04:11;73868.28;;;0.00;0.00
60715;BME280;46564;53.096;8.246;2023-05-07T13:09:12;73866.75;;;0.00;0.00
60715;BME280;46564;53.096;8.246;2023-05-07T13:14:14;73866.75;;;0.00;0.00
60715;BME280;46564;53.096;8.246;2023-05-07T13:19:16;73857.59;;;0.00;0.00
60715;BME280;46564;53.096;8.246;2023-05-07T13:24:18;73761.47;;;0.00;0.00
60715;BME280;46564;53.096;8.246;2023-05-07T13:29:20;73708.06;;;0.00;0.00
60715;BME280;46564;53.096;8.246;2023-05-07T13:34:27;73688.22;;;0.00;0.00
60715;BME280;46564;53.096;8.246;2023-05-07T13:39:29;73717.22;;;0.00;0.00
60715;BME280;46564;53.096;8.246;2023-05-07T13:44:31;73758.44;;;0.00;0.00
60715;BME280;46564;53.096;8.246;2023-05-07T13:49:32;73795.03;;;0.00;0.00
60715;BME280;46564;53.096;8.246;2023-05-07T13:54:34;73735.53;;;0.00;0.00
60715;BME280;46564;53.096;8.246;2023-05-07T13:59:35;73738.59;;;0.00;0.00
60715;BME280;46564;53.096;8.246;2023-05-07T14:04:37;73685.19;;;0.00;0.00
60715;BME280;46564;53.096;8.246;2023-05-07T14:09:39;73749.28;;;0.00;0.00
60715;BME280;46564;53.096;8.246;2023-05-07T14:14:40;73694.34;;;0.00;0.00
60715;BME280;46564;53.096;8.246;2023-05-07T14:19:42;73700.44;;;0.00;0.00
60715;BME280;46564;53.096;8.246;2023-05-07T14:24:44;73727.91;;;0.00;0.00
60715;BME280;46564;53.096;8.246;2023-05-07T14:29:51;73721.81;;;0.00;0.00
60715;BME280;46564;53.096;8.246;2023-05-07T14:34:52;73717.22;;;0.00;0.00
60715;BME280;46564;53.096;8.246;2023-05-07T14:39:54;73714.19;;;0.00;0.00
60715;BME280;46564;53.096;8.246;2023-05-07T14:44:55;73691.28;;;0.00;0.00
60715;BME280;46564;53.096;8.246;2023-05-07T14:49:57;73715.69;;;0.00;0.00
60715;BME280;46564;53.096;8.246;2023-05-07T14:54:59;73734.00;;;0.00;0.00
60715;BME280;46564;53.096;8.246;2023-05-07T15:00:03;73706.53;;;0.00;0.00
60715;BME280;46564;53.096;8.246;2023-05-07T15:05:06;73700.44;;;0.00;0.00
60715;BME280;46564;53.096;8.246;2023-05-07T15:10:08;73697.38;;;0.00;0.00
60715;BME280;46564;53.096;8.246;2023-05-07T15:15:10;73734.00;;;0.00;0.00
60715;BME280;46564;53.096;8.246;2023-05-07T15:20:12;73692.81;;;0.00;0.00
60715;BME280;46564;53.096;8.246;2023-05-07T15:25:13;73706.53;;;0.00;0.00
60715;BME280;46564;53.096;8.246;2023-05-07T15:30:15;73735.53;;;0.00;0.00
60715;BME280;46564;53.096;8.246;2023-05-07T15:35:17;73727.91;;;0.00;0.00
60715;BME280;46564;53.096;8.246;2023-05-07T15:40:22;73727.91;;;0.00;0.00
60715;BME280;46564;53.096;8.246;2023-05-07T15:45:24;73744.69;;;0.00;0.00
60715;BME280;46564;53.096;8.246;2023-05-07T15:50:26;73756.91;;;0.00;0.00
60715;BME280;46564;53.096;8.246;2023-05-07T15:55:27;73750.78;;;0.00;0.00
60715;BME280;46564;53.096;8.246;2023-05-07T16:00:29;73767.59;;;0.00;0.00
60715;BME280;46564;53.096;8.246;2023-05-07T16:05:31;73767.59;;;0.00;0.00
60715;BME280;46564;53.096;8.246;2023-05-07T16:10:32;73700.44;;;0.00;0.00
60715;BME280;46564;53.096;8.246;2023-05-07T16:15:34;73657.72;;;0.00;0.00
60715;BME280;46564;53.096;8.246;2023-05-07T16:20:36;73738.59;;;0.00;0.00
60715;BME280;46564;53.096;8.246;2023-05-07T16:25:38;73759.94;;;0.00;0.00
60715;BME280;46564;53.096;8.246;2023-05-07T16:30:39;73810.31;;;0.00;0.00
60715;BME280;46564;53.096;8.246;2023-05-07T16:35:41;73842.34;;;0.00;0.00
60715;BME280;46564;53.096;8.246;2023-05-07T16:40:44;73866.75;;;0.00;0.00
60715;BME280;46564;53.096;8.246;2023-05-07T16:45:45;73868.28;;;0.00;0.00
60715;BME280;46564;53.096;8.246;2023-05-07T16:50:47;73859.13;;;0.00;0.00
60715;BME280;46564;53.096;8.246;2023-05-07T16:55:49;73891.19;;;0.00;0.00
60715;BME280;46564;53.096;8.246;2023-05-07T17:00:50;73903.38;;;0.00;0.00
60715;BME280;46564;53.096;8.246;2023-05-07T17:05:52;73892.69;;;0.00;0.00
60715;BME280;46564;53.096;8.246;2023-05-07T17:10:53;73831.66;;;0.00;0.00
60715;BME280;46564;53.096;8.246;2023-05-07T17:15:55;73822.50;;;0.00;0.00
60715;BME280;46564;53.096;8.246;2023-05-07T17:20:56;73848.44;;;0.00;0.00
60715;BME280;46564;53.096;8.246;2023-05-07T17:25:58;73904.91;;;0.00;0.00
60715;BME280;46564;53.096;8.246;2023-05-07T17:30:59;73927.81;;;0.00;0.00
60715;BME280;46564;53.096;8.246;2023-05-07T17:36:01;73941.53;;;0.00;0.00
60715;BME280;46564;53.096;8.246;2023-05-07T17:41:03;73944.59;;;0.00;0.00
60715;BME280;46564;53.096;8.246;2023-05-07T17:46:07;73956.78;;;0.00;0.00
60715;BME280;46564;53.096;8.246;2023-05-07T17:51:09;73965.94;;;0.00;0.00
60715;BME280;46564;53.096;8.246;2023-05-07T17:56:10;73988.84;;;0.00;0.00
60715;BME280;46564;53.096;8.246;2023-05-07T18:01:12;74002.56;;;0.00;0.00
60715;BME280;46564;53.096;8.246;2023-05-07T18:06:14;74020.88;;;0.00;0.00
60715;BME280;46564;53.096;8.246;2023-05-07T18:11:20;74033.09;;;0.00;0.00
60715;BME280;46564;53.096;8.246;2023-05-07T18:16:22;74043.75;;;0.00;0.00
60715;BME280;46564;53.096;8.246;2023-05-07T18:21:23;74057.50;;;0.00;0.00
60715;BME280;46564;53.096;8.246;2023-05-07T18:26:25;74072.75;;;0.00;0.00
60715;BME280;46564;53.096;8.246;2023-05-07T18:31:26;74081.91;;;0.00;0.00
60715;BME280;46564;53.096;8.246;2023-05-07T18:36:28;74084.97;;;0.00;0.00
60715;BME280;46564;53.096;8.246;2023-05-07T18:41:29;74101.75;;;0.00;0.00
60715;BME280;46564;53.096;8.246;2023-05-07T18:46:31;74115.47;;;0.00;0.00
60715;BME280;46564;53.096;8.246;2023-05-07T18:51:33;74130.75;;;0.00;0.00
60715;BME280;46564;53.096;8.246;2023-05-07T18:56:34;74136.84;;;0.00;0.00
60715;BME280;46564;53.096;8.246;2023-05-07T19:01:36;74144.47;;;0.00;0.00
60715;BME280;46564;53.096;8.246;2023-05-07T19:06:38;74152.09;;;0.00;0.00
60715;BME280;46564;53.096;8.246;2023-05-07T19:11:39;74162.78;;;0.00;0.00
60715;BME280;46564;53.096;8.246;2023-05-07T19:16:41;74170.41;;;0.00;0.00
60715;BME280;46564;53.096;8.246;2023-05-07T19:21:42;74170.41;;;0.00;0.00
60715;BME280;46564;53.096;8.246;2023-05-07T19:26:44;74176.53;;;0.00;0.00
60715;BME280;46564;53.096;8.246;2023-05-07T19:31:45;74197.88;;;0.00;0.00
60715;BME280;46564;53.096;8.246;2023-05-07T19:36:47;74203.97;;;0.00;0.00
60715;BME280;46564;53.096;8.246;2023-05-07T19:41:48;74220.78;;;0.00;0.00
60715;BME280;46564;53.096;8.246;2023-05-07T19:46:50;74236.03;;;0.00;0.00
60715;BME280;46564;53.096;8.246;2023-05-07T19:51:53;74240.59;;;0.00;0.00
60715;BME280;46564;53.096;8.246;2023-05-07T19:56:55;74249.75;;;0.00;0.00
60715;BME280;46564;53.096;8.246;2023-05-07T20:01:56;74255.88;;;0.00;0.00
60715;BME280;46564;53.096;8.246;2023-05-07T20:06:58;74263.50;;;0.00;0.00
60715;BME280;46564;53.096;8.246;2023-05-07T20:12:00;74275.69;;;0.00;0.00
60715;BME280;46564;53.096;8.246;2023-05-07T20:17:02;74280.28;;;0.00;0.00
60715;BME280;46564;53.096;8.246;2023-05-07T20:22:03;74277.22;;;0.00;0.00
60715;BME280;46564;53.096;8.246;2023-05-07T20:27:05;74292.50;;;0.00;0.00
60715;BME280;46564;53.096;8.246;2023-05-07T20:32:06;74298.59;;;0.00;0.00
60715;BME280;46564;53.096;8.246;2023-05-07T20:37:08;74309.28;;;0.00;0.00
60715;BME280;46564;53.096;8.246;2023-05-07T20:42:14;74319.94;;;0.00;0.00
60715;BME280;46564;53.096;8.246;2023-05-07T20:47:16;74323.00;;;0.00;0.00
60715;BME280;46564;53.096;8.246;2023-05-07T20:52:18;74332.16;;;0.00;0.00
60715;BME280;46564;53.096;8.246;2023-05-07T20:57:19;74335.22;;;0.00;0.00
60715;BME280;46564;53.096;8.246;2023-05-07T21:02:21;74344.38;;;0.00;0.00
60715;BME280;46564;53.096;8.246;2023-05-07T21:07:22;74356.56;;;0.00;0.00
60715;BME280;46564;53.096;8.246;2023-05-07T21:12:24;74370.31;;;0.00;0.00
60715;BME280;46564;53.096;8.246;2023-05-07T21:17:26;74385.56;;;0.00;0.00
60715;BME280;46564;53.096;8.246;2023-05-07T21:22:29;74391.66;;;0.00;0.00
60715;BME280;46564;53.096;8.246;2023-05-07T21:27:31;74402.34;;;0.00;0.00
60715;BME280;46564;53.096;8.246;2023-05-07T21:32:32;74408.44;;;0.00;0.00
60715;BME280;46564;53.096;8.246;2023-05-07T21:37:34;74420.66;;;0.00;0.00
60715;BME280;46564;53.096;8.246;2023-05-07T21:42:36;74420.66;;;0.00;0.00
60715;BME280;46564;53.096;8.246;2023-05-07T21:47:37;74428.28;;;0.00;0.00
60715;BME280;46564;53.096;8.246;2023-05-07T21:52:39;74432.88;;;0.00;0.00
60715;BME280;46564;53.096;8.246;2023-05-07T21:57:40;74442.03;;;0.00;0.00
60715;BME280;46564;53.096;8.246;2023-05-07T22:02:54;74448.13;;;0.00;0.00
60715;BME280;46564;53.096;8.246;2023-05-07T22:07:56;74451.19;;;0.00;0.00
60715;BME280;46564;53.096;8.246;2023-05-07T22:12:58;74451.19;;;0.00;0.00
60715;BME280;46564;53.096;8.246;2023-05-07T22:17:59;74457.28;;;0.00;0.00
60715;BME280;46564;53.096;8.246;2023-05-07T22:23:01;74464.91;;;0.00;0.00
60715;BME280;46564;53.096;8.246;2023-05-07T22:28:02;74471.00;;;0.00;0.00
60715;BME280;46564;53.096;8.246;2023-05-07T22:33:04;74481.69;;;0.00;0.00
60715;BME280;46564;53.096;8.246;2023-05-07T22:38:06;74490.84;;;0.00;0.00
60715;BME280;46564;53.096;8.246;2023-05-07T22:43:08;74495.44;;;0.00;0.00
60715;BME280;46564;53.096;8.246;2023-05-07T22:48:09;74506.09;;;0.00;0.00
60715;BME280;46564;53.096;8.246;2023-05-07T22:53:11;74513.75;;;0.00;0.00
60715;BME280;46564;53.096;8.246;2023-05-07T22:58:12;59042.03;;;0.00;0.00
60715;BME280;46564;53.096;8.246;2023-05-07T23:03:14;59042.03;;;0.01;0.00
60715;BME280;46564;53.096;8.246;2023-05-07T23:08:16;59042.03;;;0.01;0.00
60715;BME280;46564;53.096;8.246;2023-05-07T23:13:17;59042.03;;;0.01;0.00
60715;BME280;46564;53.096;8.246;2023-05-07T23:18:19;59042.03;;;0.01;0.00
60715;BME280;46564;53.096;8.246;2023-05-07T23:23:20;59042.03;;;0.01;0.00
60715;BME280;46564;53.096;8.246;2023-05-07T23:28:22;59042.03;;;0.01;0.00
60715;BME280;46564;53.096;8.246;2023-05-07T23:33:24;59042.03;;;0.01;0.00
60715;BME280;46564;53.096;8.246;2023-05-07T23:38:26;59042.03;;;0.01;0.00
60715;BME280;46564;53.096;8.246;2023-05-07T23:43:27;59042.03;;;0.01;0.00
60715;BME280;46564;53.096;8.246;2023-05-07T23:48:30;59042.03;;;0.01;0.00
60715;BME280;46564;53.096;8.246;2023-05-07T23:53:31;59042.03;;;0.01;0.00
60715;BME280;46564;53.096;8.246;2023-05-07T23:58:33;59042.03;;;0.01;0.00
